Time;durP1;ratioP1;P1;durP2;ratioP2;P2;SDS_P1;SDS_P2;PMS_P1;PMS_P2;Temp;Humidity;BMP_temperature;BMP_pressure;BME280_temperature;BME280_humidity;BME280_pressure;Samples;Min_cycle;Max_cycle;Signal;HPM_P1;HPM_P2
2023/03/20 00:02:20;;;;;;;4.63;3.30;;;11.80;99.90;;;;;;5179326;28;20489;-49
2023/03/20 00:04:51;;;;;;;3.40;2.70;;;11.80;99.90;;;;;;5177395;28;20538;-48
2023/03/20 00:07:22;;;;;;;3.07;2.70;;;11.80;99.90;;;;;;5178148;28;20510;-48
2023/03/20 00:09:56;;;;;;;4.07;3.27;;;11.80;99.90;;;;;;5180420;28;20204;-48
2023/03/20 00:12:26;;;;;;;3.73;3.30;;;11.70;99.90;;;;;;5178677;28;20258;-52
2023/03/20 00:15:01;;;;;;;3.43;3.13;;;11.70;99.90;;;;;;5186130;28;20852;-48
2023/03/20 00:17:31;;;;;;;2.70;2.50;;;11.60;99.90;;;;;;5183004;28;20730;-47
2023/03/20 00:20:02;;;;;;;3.63;3.33;;;11.60;99.90;;;;;;5179857;28;20670;-48
2023/03/20 00:22:33;;;;;;;4.00;3.07;;;11.50;99.90;;;;;;5174503;28;20181;-49
2023/03/20 00:25:04;;;;;;;2.93;2.63;;;11.50;99.90;;;;;;5172928;28;20458;-47
2023/03/20 00:27:35;;;;;;;5.80;3.77;;;11.40;99.90;;;;;;5176490;28;20613;-48
2023/03/20 00:30:23;;;;;;;3.67;2.80;;;11.40;99.90;;;;;;5173038;28;20463;-49
2023/03/20 00:32:55;;;;;;;7.47;3.30;;;11.40;99.90;;;;;;5179510;28;20188;-48
2023/03/20 00:35:30;;;;;;;3.20;2.90;;;11.20;99.90;;;;;;5176883;28;20434;-47
2023/03/20 00:38:01;;;;;;;4.80;3.10;;;11.20;99.90;;;;;;5180873;28;20608;-46
2023/03/20 00:40:32;;;;;;;3.03;2.50;;;10.90;99.90;;;;;;5176115;28;20537;-50
2023/03/20 00:43:03;;;;;;;8.27;3.60;;;10.90;99.90;;;;;;5174392;28;20181;-47
2023/03/20 00:45:34;;;;;;;3.50;3.20;;;10.80;99.90;;;;;;5179085;28;20595;-48
2023/03/20 00:48:05;;;;;;;7.40;3.93;;;10.70;99.90;;;;;;5178772;28;20815;-47
2023/03/20 00:50:36;;;;;;;4.00;3.67;;;10.60;99.90;;;;;;5175269;28;20474;-47
2023/03/20 00:53:11;;;;;;;5.90;3.10;;;10.50;99.90;;;;;;5178811;28;20188;-48
2023/03/20 00:55:42;;;;;;;4.83;2.50;;;10.40;99.90;;;;;;5177752;28;20435;-47
2023/03/20 00:58:12;;;;;;;3.43;3.07;;;10.30;99.90;;;;;;5171453;28;20838;-49
2023/03/20 01:00:44;;;;;;;3.57;3.10;;;10.20;99.90;;;;;;5178559;28;20201;-48
2023/03/20 01:03:24;;;;;;;3.20;3.00;;;10.10;99.90;;;;;;5177440;28;20181;-47
2023/03/20 01:05:56;;;;;;;4.00;3.40;;;10.00;99.90;;;;;;5181798;28;20436;-47
2023/03/20 01:08:27;;;;;;;3.40;2.90;;;9.90;99.90;;;;;;5171520;28;20452;-48
2023/03/20 01:10:57;;;;;;;4.03;3.70;;;9.80;99.90;;;;;;5177554;28;20960;-47
2023/03/20 01:13:30;;;;;;;5.40;3.20;;;9.70;99.90;;;;;;5175156;28;20204;-48
2023/03/20 01:16:01;;;;;;;10.47;3.93;;;9.70;99.90;;;;;;5176615;28;20255;-46
2023/03/20 01:18:31;;;;;;;3.30;3.13;;;9.70;99.90;;;;;;5176652;28;20431;-47
2023/03/20 01:21:02;;;;;;;3.80;3.60;;;9.60;99.90;;;;;;5178458;28;20215;-50
2023/03/20 01:23:33;;;;;;;4.33;4.03;;;9.60;99.90;;;;;;5175444;28;20191;-48
2023/03/20 01:26:10;;;;;;;3.90;3.70;;;9.50;99.90;;;;;;5180163;28;20190;-47
2023/03/20 01:28:40;;;;;;;4.60;4.20;;;9.50;99.90;;;;;;5177271;28;20180;-47
2023/03/20 01:31:11;;;;;;;5.67;5.10;;;9.50;99.90;;;;;;5172162;28;21931;-47
2023/03/20 01:33:42;;;;;;;7.63;5.07;;;9.50;99.90;;;;;;5156218;28;20194;-49
2023/03/20 01:36:16;;;;;;;4.43;4.13;;;9.50;99.90;;;;;;5178200;28;21000;-46
2023/03/20 01:38:54;;;;;;;6.27;4.90;;;9.50;99.90;;;;;;5173262;28;20204;-47
2023/03/20 01:41:26;;;;;;;12.03;6.00;;;9.50;99.90;;;;;;5172969;28;20431;-46
2023/03/20 01:43:57;;;;;;;7.43;5.00;;;9.50;99.90;;;;;;5175393;28;20783;-46
2023/03/20 01:46:30;;;;;;;5.47;4.63;;;9.50;99.90;;;;;;5175398;28;20432;-46
2023/03/20 01:49:21;;;;;;;9.13;6.70;;;9.50;99.90;;;;;;5175052;28;20216;-47
2023/03/20 01:51:52;;;;;;;6.23;5.10;;;9.50;99.90;;;;;;5176771;28;20846;-47
2023/03/20 01:54:34;;;;;;;7.10;5.13;;;9.50;99.90;;;;;;5173345;28;20526;-48
2023/03/20 01:57:17;;;;;;;6.03;4.80;;;9.60;99.90;;;;;;5176172;28;20242;-47
2023/03/20 02:00:00;;;;;;;8.20;5.10;;;9.60;99.90;;;;;;5179039;28;20535;-46
2023/03/20 02:02:31;;;;;;;6.87;6.00;;;9.70;99.90;;;;;;5179969;28;20442;-47
2023/03/20 02:05:09;;;;;;;5.83;5.30;;;9.80;99.90;;;;;;5179620;28;20780;-46
2023/03/20 02:07:40;;;;;;;5.13;4.63;;;9.80;99.90;;;;;;5176655;28;20479;-47
2023/03/20 02:10:15;;;;;;;4.50;3.63;;;9.90;99.90;;;;;;5174775;28;20459;-47
2023/03/20 02:12:47;;;;;;;4.60;4.20;;;10.00;99.90;;;;;;5178049;28;20434;-50
2023/03/20 02:15:18;;;;;;;4.77;3.70;;;10.00;99.90;;;;;;5164544;28;20800;-48
2023/03/20 02:17:48;;;;;;;7.93;4.40;;;10.00;99.90;;;;;;5179046;28;20458;-47
2023/03/20 02:20:44;;;;;;;5.63;4.57;;;10.10;99.90;;;;;;5158072;28;20664;-48
2023/03/20 02:23:47;;;;;;;4.53;4.13;;;10.00;99.90;;;;;;5171775;28;22046;-47
2023/03/20 02:26:43;;;;;;;4.87;3.60;;;10.00;99.90;;;;;;5179871;28;20462;-46
2023/03/20 02:29:36;;;;;;;6.60;5.00;;;10.00;99.90;;;;;;5178271;28;20450;-47
2023/03/20 02:32:10;;;;;;;4.70;4.40;;;10.10;99.90;;;;;;5174696;28;20444;-46
2023/03/20 02:34:53;;;;;;;5.00;4.47;;;10.20;99.90;;;;;;5182174;28;20441;-47
2023/03/20 02:37:35;;;;;;;5.97;4.87;;;10.20;99.90;;;;;;5184314;28;20901;-47
2023/03/20 02:40:32;;;;;;;7.57;5.33;;;10.20;99.90;;;;;;5177900;28;20469;-47
2023/03/20 02:43:29;;;;;;;5.60;5.00;;;10.20;99.90;;;;;;5177013;28;20548;-45
2023/03/20 02:46:23;;;;;;;6.57;5.47;;;10.20;99.90;;;;;;5182229;28;20471;-48
2023/03/20 02:49:31;;;;;;;5.33;4.60;;;10.20;99.90;;;;;;5178910;28;20467;-47
2023/03/20 02:52:31;;;;;;;14.00;4.63;;;10.20;99.90;;;;;;5183772;28;20446;-46
2023/03/20 02:55:02;;;;;;;5.00;4.37;;;10.20;99.90;;;;;;5179211;28;20505;-47
2023/03/20 02:58:17;;;;;;;4.53;4.23;;;10.20;99.90;;;;;;5180421;28;20551;-46
2023/03/20 03:00:51;;;;;;;4.80;4.40;;;10.30;99.90;;;;;;5191342;28;20212;-47
2023/03/20 03:03:31;;;;;;;4.93;4.50;;;10.40;99.90;;;;;;5184887;28;20439;-48
2023/03/20 03:06:11;;;;;;;5.77;5.27;;;10.40;99.90;;;;;;5187610;28;20986;-47
2023/03/20 03:08:46;;;;;;;5.20;4.73;;;10.40;99.90;;;;;;5180732;28;20501;-46
2023/03/20 03:11:17;;;;;;;16.13;5.73;;;10.50;99.90;;;;;;5175064;28;20447;-47
2023/03/20 03:13:52;;;;;;;5.17;4.70;;;10.50;99.90;;;;;;5177829;28;20454;-47
2023/03/20 03:16:30;;;;;;;4.70;4.30;;;10.50;99.90;;;;;;5175881;28;20870;-47
2023/03/20 03:19:17;;;;;;;5.60;5.10;;;10.50;99.90;;;;;;5185900;28;20454;-48
2023/03/20 03:21:48;;;;;;;5.83;5.33;;;10.50;99.90;;;;;;5182780;28;20430;-47
2023/03/20 03:24:36;;;;;;;5.00;4.70;;;10.60;99.90;;;;;;5178799;28;20434;-46
2023/03/20 03:27:22;;;;;;;7.83;5.70;;;10.60;99.90;;;;;;5179710;28;20450;-48
2023/03/20 03:29:57;;;;;;;5.73;4.83;;;10.60;99.90;;;;;;5182202;28;20496;-47
2023/03/20 03:32:39;;;;;;;7.10;5.33;;;10.70;99.90;;;;;;5177807;28;20533;-49
2023/03/20 03:35:16;;;;;;;7.20;6.00;;;10.60;99.90;;;;;;5170807;28;20448;-46
2023/03/20 03:38:14;;;;;;;7.13;6.17;;;10.70;99.90;;;;;;5175650;28;20513;-47
2023/03/20 03:40:47;;;;;;;6.77;5.03;;;10.60;99.90;;;;;;5181359;28;20454;-47
2023/03/20 03:43:49;;;;;;;6.63;6.03;;;10.60;99.90;;;;;;5175855;28;22126;-47
2023/03/20 03:46:50;;;;;;;6.10;5.60;;;10.60;99.90;;;;;;5171497;28;20446;-50
2023/03/20 03:49:28;;;;;;;9.17;4.87;;;10.50;99.90;;;;;;5171912;28;20478;-48
2023/03/20 03:52:07;;;;;;;8.37;6.57;;;10.50;99.90;;;;;;5181986;28;20435;-48
2023/03/20 03:54:45;;;;;;;7.40;6.67;;;10.40;99.90;;;;;;5180946;28;20448;-50
2023/03/20 03:57:24;;;;;;;9.50;7.43;;;10.40;99.90;;;;;;5181920;28;20450;-48
2023/03/20 03:59:56;;;;;;;7.67;6.30;;;10.40;99.90;;;;;;5180859;28;20456;-50
2023/03/20 04:02:27;;;;;;;16.37;5.70;;;10.40;99.90;;;;;;5178394;28;20455;-49
2023/03/20 04:05:00;;;;;;;8.90;7.07;;;10.30;99.90;;;;;;5179476;28;20518;-49
2023/03/20 04:07:30;;;;;;;8.90;6.80;;;10.30;99.90;;;;;;5182592;28;20439;-49
2023/03/20 04:10:02;;;;;;;7.77;7.00;;;10.30;99.90;;;;;;5183204;28;20474;-56
2023/03/20 04:12:39;;;;;;;11.30;6.50;;;10.30;99.90;;;;;;5177702;28;20185;-49
2023/03/20 04:15:11;;;;;;;8.33;6.57;;;10.30;99.90;;;;;;5178765;28;20494;-49
2023/03/20 04:17:43;;;;;;;10.70;7.10;;;10.30;99.90;;;;;;5181966;28;20512;-50
2023/03/20 04:20:15;;;;;;;11.53;6.10;;;10.30;99.90;;;;;;5178797;28;20487;-48
2023/03/20 04:22:45;;;;;;;10.63;7.10;;;10.30;99.90;;;;;;5175519;28;20802;-50
2023/03/20 04:25:20;;;;;;;10.53;6.50;;;10.20;99.90;;;;;;5176902;28;20439;-51
2023/03/20 04:27:50;;;;;;;8.10;6.50;;;10.20;99.90;;;;;;5182268;28;20180;-49
2023/03/20 04:30:21;;;;;;;7.87;6.13;;;10.20;99.90;;;;;;5178135;28;20463;-48
2023/03/20 04:32:52;;;;;;;11.83;5.93;;;10.20;99.90;;;;;;5173990;28;20264;-54
2023/03/20 04:35:23;;;;;;;10.57;7.03;;;10.20;99.90;;;;;;5183115;28;20637;-50
2023/03/20 04:37:53;;;;;;;12.83;7.23;;;10.20;99.90;;;;;;5180264;28;20234;-50
2023/03/20 04:40:24;;;;;;;8.60;6.70;;;10.20;99.90;;;;;;5174327;28;20258;-50
2023/03/20 04:42:55;;;;;;;7.00;6.40;;;10.20;99.90;;;;;;5165606;28;20202;-50
2023/03/20 04:45:26;;;;;;;7.90;7.20;;;10.20;99.90;;;;;;5177159;28;20519;-49
2023/03/20 04:47:57;;;;;;;8.90;7.97;;;10.20;99.90;;;;;;5181317;28;20208;-48
2023/03/20 04:50:27;;;;;;;7.17;6.47;;;10.20;99.90;;;;;;5174719;28;20247;-48
2023/03/20 04:52:58;;;;;;;7.90;7.20;;;10.10;99.90;;;;;;5181215;28;20181;-49
2023/03/20 04:55:29;;;;;;;14.30;6.67;;;10.10;99.90;;;;;;5179362;28;20199;-50
2023/03/20 04:57:59;;;;;;;10.60;7.33;;;10.10;99.90;;;;;;5175198;28;20204;-49
2023/03/20 05:00:30;;;;;;;7.40;6.80;;;10.10;99.90;;;;;;5188697;28;20204;-49
2023/03/20 05:03:01;;;;;;;8.93;7.33;;;10.10;99.90;;;;;;5180063;28;20231;-49
2023/03/20 05:05:33;;;;;;;10.57;8.03;;;10.10;99.90;;;;;;5177047;28;20176;-50
2023/03/20 05:08:06;;;;;;;8.23;7.43;;;10.20;99.90;;;;;;5176936;28;20444;-50
2023/03/20 05:10:37;;;;;;;14.37;7.97;;;10.20;99.90;;;;;;5175904;28;20517;-51
2023/03/20 05:13:07;;;;;;;9.67;7.53;;;10.20;99.90;;;;;;5178554;28;20789;-50
2023/03/20 05:15:38;;;;;;;9.57;7.90;;;10.20;99.90;;;;;;5178152;28;20196;-49
2023/03/20 05:18:09;;;;;;;12.53;7.97;;;10.20;99.90;;;;;;5177119;28;20265;-49
2023/03/20 05:20:40;;;;;;;8.17;7.30;;;10.20;99.90;;;;;;5181613;28;20199;-49
2023/03/20 05:23:10;;;;;;;10.20;7.90;;;10.20;99.90;;;;;;5179488;28;20444;-49
2023/03/20 05:25:41;;;;;;;11.83;8.43;;;10.20;99.90;;;;;;5176947;28;20205;-51
2023/03/20 05:28:12;;;;;;;8.67;7.87;;;10.20;99.90;;;;;;5176906;28;20684;-50
2023/03/20 05:30:43;;;;;;;12.23;8.40;;;10.20;99.90;;;;;;5168407;28;20201;-47
2023/03/20 05:33:15;;;;;;;11.73;9.33;;;10.20;99.90;;;;;;5177965;28;20192;-47
2023/03/20 05:35:46;;;;;;;12.40;8.83;;;10.20;99.90;;;;;;5181108;28;20735;-47
2023/03/20 05:38:21;;;;;;;10.80;9.10;;;10.20;99.90;;;;;;5174000;28;20471;-46
2023/03/20 05:41:02;;;;;;;15.90;10.47;;;10.20;99.90;;;;;;5176181;28;20196;-47
2023/03/20 05:43:33;;;;;;;15.67;10.40;;;10.30;99.90;;;;;;5174381;28;20435;-48
2023/03/20 05:46:04;;;;;;;11.40;9.80;;;10.20;99.90;;;;;;5172950;28;20428;-48
2023/03/20 05:48:35;;;;;;;14.77;9.43;;;10.20;99.90;;;;;;5174334;28;20185;-46
2023/03/20 05:51:06;;;;;;;11.80;10.20;;;10.30;99.90;;;;;;5173195;28;20606;-50
2023/03/20 05:53:37;;;;;;;12.70;9.37;;;10.20;99.90;;;;;;5175943;28;20493;-47
2023/03/20 05:56:08;;;;;;;10.53;9.30;;;10.40;99.90;;;;;;5179729;28;20199;-47
2023/03/20 05:58:39;;;;;;;12.20;10.30;;;10.30;99.90;;;;;;5164903;28;20375;-48
2023/03/20 06:01:10;;;;;;;16.10;9.80;;;10.40;99.90;;;;;;5166164;28;20566;-49
2023/03/20 06:03:41;;;;;;;14.70;9.63;;;10.40;99.90;;;;;;5167521;28;20188;-48
2023/03/20 06:06:11;;;;;;;18.27;11.07;;;10.40;99.90;;;;;;5165086;28;20272;-48
2023/03/20 06:08:42;;;;;;;12.80;10.37;;;10.50;99.90;;;;;;5167589;28;20522;-47
2023/03/20 06:11:13;;;;;;;17.53;11.20;;;10.40;99.90;;;;;;5164214;28;20181;-48
2023/03/20 06:13:44;;;;;;;16.03;9.90;;;10.40;99.90;;;;;;5163914;28;20444;-48
2023/03/20 06:16:15;;;;;;;17.23;11.60;;;10.40;99.90;;;;;;5165797;28;21155;-48
2023/03/20 06:18:45;;;;;;;18.47;12.23;;;10.40;99.90;;;;;;5168763;28;20231;-47
2023/03/20 06:21:16;;;;;;;16.30;12.20;;;10.40;99.90;;;;;;5161018;28;20181;-49
2023/03/20 06:23:47;;;;;;;13.43;11.97;;;10.40;99.90;;;;;;5159893;28;20200;-50
2023/03/20 06:26:18;;;;;;;13.13;11.60;;;10.40;99.90;;;;;;5168967;28;20180;-48
2023/03/20 06:28:48;;;;;;;16.17;12.50;;;10.40;99.90;;;;;;5167646;28;20292;-48
2023/03/20 06:31:19;;;;;;;16.80;11.50;;;10.30;99.90;;;;;;5170106;28;20180;-49
2023/03/20 06:33:51;;;;;;;15.53;12.10;;;10.30;99.90;;;;;;5167404;28;20216;-49
2023/03/20 06:36:22;;;;;;;15.27;11.70;;;10.20;99.90;;;;;;5165280;28;20640;-50
2023/03/20 06:38:55;;;;;;;15.33;12.13;;;10.10;99.90;;;;;;5167846;28;20451;-48
2023/03/20 06:41:26;;;;;;;18.37;14.00;;;10.10;99.90;;;;;;5165596;28;20440;-48
2023/03/20 06:43:57;;;;;;;39.00;13.83;;;10.10;99.90;;;;;;5165318;28;20438;-47
2023/03/20 06:46:28;;;;;;;20.53;13.60;;;10.20;99.90;;;;;;5168965;28;20197;-49
2023/03/20 06:48:58;;;;;;;20.07;14.43;;;10.10;99.90;;;;;;5155598;28;20212;-48
2023/03/20 06:51:29;;;;;;;29.13;16.37;;;9.90;99.90;;;;;;5166731;28;20196;-47
2023/03/20 06:54:00;;;;;;;38.93;19.10;;;9.80;99.90;;;;;;5167163;28;21491;-47
2023/03/20 06:56:31;;;;;;;32.33;20.33;;;9.70;99.90;;;;;;5164584;28;20208;-48
2023/03/20 06:59:02;;;;;;;32.27;18.70;;;9.70;99.90;;;;;;5165444;28;20240;-48
2023/03/20 07:01:32;;;;;;;33.70;20.00;;;9.70;99.90;;;;;;5168166;28;20204;-48
2023/03/20 07:04:03;;;;;;;31.50;19.97;;;9.70;99.90;;;;;;5165956;28;20185;-48
2023/03/20 07:06:34;;;;;;;29.37;19.73;;;9.80;99.90;;;;;;5168271;28;20236;-48
2023/03/20 07:09:04;;;;;;;34.30;20.13;;;9.80;99.90;;;;;;5166886;28;20365;-49
2023/03/20 07:11:35;;;;;;;33.47;20.40;;;9.90;99.90;;;;;;5169913;28;20273;-48
2023/03/20 07:14:06;;;;;;;32.63;19.50;;;9.90;99.90;;;;;;5172628;28;20189;-47
2023/03/20 07:16:37;;;;;;;45.17;21.93;;;10.00;99.90;;;;;;5169283;28;20227;-50
2023/03/20 07:19:08;;;;;;;38.60;22.03;;;10.00;99.90;;;;;;5162400;28;20456;-48
2023/03/20 07:21:38;;;;;;;36.33;22.50;;;10.00;99.90;;;;;;5166505;28;20189;-49
2023/03/20 07:24:09;;;;;;;39.80;23.10;;;9.90;99.90;;;;;;5168668;28;20602;-48
2023/03/20 07:26:40;;;;;;;41.10;23.00;;;10.00;99.90;;;;;;5169340;28;20226;-49
2023/03/20 07:29:12;;;;;;;44.10;23.80;;;9.80;99.90;;;;;;5166747;28;20205;-49
2023/03/20 07:31:42;;;;;;;40.27;23.70;;;9.80;99.90;;;;;;5178188;28;20519;-51
2023/03/20 07:34:13;;;;;;;41.40;24.30;;;9.60;99.90;;;;;;5168679;28;20446;-50
2023/03/20 07:36:44;;;;;;;37.73;21.37;;;9.50;99.90;;;;;;5153199;28;20219;-50
2023/03/20 07:39:15;;;;;;;42.40;23.23;;;9.40;99.90;;;;;;5167520;28;20196;-50
2023/03/20 07:41:46;;;;;;;34.27;20.77;;;9.50;99.90;;;;;;5168234;28;20478;-51
2023/03/20 07:44:18;;;;;;;38.10;22.00;;;9.50;99.90;;;;;;5168469;28;20195;-49
2023/03/20 07:46:48;;;;;;;40.83;21.40;;;9.60;99.90;;;;;;5169518;28;20561;-51
2023/03/20 07:49:19;;;;;;;42.83;21.07;;;9.60;99.90;;;;;;5167992;28;20483;-49
2023/03/20 07:51:50;;;;;;;40.03;20.57;;;9.60;99.90;;;;;;5168111;28;20241;-50
2023/03/20 07:54:21;;;;;;;32.47;19.90;;;9.60;99.90;;;;;;5168066;28;20192;-50
2023/03/20 07:56:52;;;;;;;42.27;19.43;;;9.70;99.90;;;;;;5166343;28;20223;-49
2023/03/20 07:59:23;;;;;;;36.97;20.13;;;9.70;99.90;;;;;;5169409;28;20200;-49
2023/03/20 08:01:53;;;;;;;29.57;18.90;;;9.80;99.90;;;;;;5164821;28;21066;-52
2023/03/20 08:04:24;;;;;;;32.30;19.83;;;10.00;99.90;;;;;;5167152;28;20252;-49
2023/03/20 08:06:55;;;;;;;32.60;18.60;;;10.20;99.90;;;;;;5168892;28;20282;-51
2023/03/20 08:09:26;;;;;;;36.23;20.37;;;10.50;99.90;;;;;;5160054;28;20216;-50
2023/03/20 08:11:56;;;;;;;32.77;18.60;;;10.70;99.90;;;;;;5164802;28;20193;-50
2023/03/20 08:14:27;;;;;;;30.00;18.60;;;10.70;99.90;;;;;;5166107;28;20207;-50
2023/03/20 08:16:58;;;;;;;32.30;18.67;;;10.80;99.90;;;;;;5171775;28;20336;-51
2023/03/20 08:19:29;;;;;;;34.30;18.67;;;10.90;99.90;;;;;;5168738;28;20233;-53
2023/03/20 08:21:59;;;;;;;32.40;17.30;;;11.00;99.90;;;;;;5166275;28;20239;-51
2023/03/20 08:24:30;;;;;;;29.00;18.50;;;10.90;99.90;;;;;;5165979;28;20645;-51
2023/03/20 08:27:01;;;;;;;37.53;19.43;;;10.80;99.90;;;;;;5162172;28;20192;-50
2023/03/20 08:29:32;;;;;;;38.30;19.43;;;10.60;99.90;;;;;;5170424;28;20209;-48
2023/03/20 08:32:03;;;;;;;31.87;17.17;;;10.60;99.90;;;;;;5164958;28;20482;-50
2023/03/20 08:34:33;;;;;;;41.00;17.97;;;10.30;99.90;;;;;;5161737;28;20188;-49
2023/03/20 08:37:04;;;;;;;36.00;18.30;;;10.20;99.90;;;;;;5162317;28;20201;-51
2023/03/20 08:39:36;;;;;;;36.20;17.60;;;10.40;99.90;;;;;;5165173;28;20224;-51
2023/03/20 08:42:07;;;;;;;34.57;19.07;;;10.50;99.90;;;;;;5168383;28;20530;-51
2023/03/20 08:44:37;;;;;;;35.87;17.30;;;10.90;99.90;;;;;;5165814;28;21023;-49
2023/03/20 08:47:10;;;;;;;27.93;15.43;;;11.50;99.90;;;;;;5163070;28;20275;-50
2023/03/20 08:49:40;;;;;;;33.90;17.70;;;12.00;99.90;;;;;;5165313;28;20270;-49
2023/03/20 08:52:11;;;;;;;35.13;16.80;;;12.70;99.90;;;;;;5167608;28;20448;-48
2023/03/20 08:54:42;;;;;;;30.00;16.10;;;13.00;99.90;;;;;;5164996;28;20188;-48
2023/03/20 08:57:13;;;;;;;30.80;16.93;;;13.50;99.90;;;;;;5166411;28;20209;-51
2023/03/20 08:59:43;;;;;;;23.90;14.33;;;13.80;99.90;;;;;;5164477;28;20649;-52
2023/03/20 09:02:14;;;;;;;33.20;15.63;;;13.70;99.90;;;;;;5165026;28;20656;-51
2023/03/20 09:04:45;;;;;;;25.10;15.00;;;13.70;99.90;;;;;;5167564;28;20188;-49
2023/03/20 09:07:15;;;;;;;27.07;15.30;;;13.70;99.90;;;;;;5168234;28;20177;-47
2023/03/20 09:09:46;;;;;;;27.00;14.40;;;13.70;99.90;;;;;;5172318;28;20205;-47
2023/03/20 09:12:17;;;;;;;29.43;15.87;;;13.50;99.90;;;;;;5165202;28;20188;-46
2023/03/20 09:14:48;;;;;;;22.50;14.00;;;13.30;99.90;;;;;;5172076;28;20191;-48
2023/03/20 09:17:18;;;;;;;25.70;14.23;;;13.20;99.90;;;;;;5168894;28;20456;-49
2023/03/20 09:19:49;;;;;;;29.10;15.83;;;13.50;99.90;;;;;;5169223;28;20226;-50
2023/03/20 09:22:20;;;;;;;33.03;15.37;;;13.90;99.90;;;;;;5168202;28;20184;-50
2023/03/20 09:24:51;;;;;;;24.13;14.60;;;14.10;99.90;;;;;;5167168;28;20693;-49
2023/03/20 09:27:21;;;;;;;25.20;13.87;;;14.20;99.90;;;;;;5167401;28;21134;-47
2023/03/20 09:29:52;;;;;;;27.20;13.80;;;14.30;99.90;;;;;;5166665;28;20256;-48
2023/03/20 09:32:22;;;;;;;23.70;13.30;;;14.40;99.90;;;;;;5166063;28;20181;-49
2023/03/20 09:34:53;;;;;;;24.67;12.97;;;14.20;99.90;;;;;;5162936;28;20185;-49
2023/03/20 09:37:24;;;;;;;24.57;12.20;;;14.00;99.90;;;;;;5168373;28;20209;-49
2023/03/20 09:39:55;;;;;;;23.23;13.23;;;13.80;99.90;;;;;;5161914;28;20224;-48
2023/03/20 09:42:25;;;;;;;24.70;12.37;;;13.60;99.90;;;;;;5163543;28;21208;-47
2023/03/20 09:45:33;;;;;;;21.67;12.10;;;13.60;99.90;;;;;;5169152;28;20225;-48
2023/03/20 09:48:24;;;;;;;23.90;11.70;;;13.30;99.90;;;;;;5169147;28;20184;-48
2023/03/20 09:51:25;;;;;;;19.90;11.43;;;13.50;99.90;;;;;;5165716;28;20456;-50
2023/03/20 09:54:01;;;;;;;21.83;11.10;;;13.60;99.90;;;;;;5150370;28;20439;-49
2023/03/20 09:56:32;;;;;;;19.83;10.73;;;13.70;99.90;;;;;;5166077;28;20498;-48
2023/03/20 09:59:05;;;;;;;18.63;11.67;;;13.90;99.90;;;;;;5162768;28;20460;-50
2023/03/20 10:01:43;;;;;;;14.67;8.97;;;13.80;99.90;;;;;;5162752;28;20944;-50
2023/03/20 10:04:14;;;;;;;19.10;10.43;;;13.60;99.90;;;;;;5166565;28;20462;-49
2023/03/20 10:06:45;;;;;;;19.33;10.77;;;13.60;99.90;;;;;;5164950;28;20436;-48
2023/03/20 10:09:25;;;;;;;20.10;11.40;;;13.50;99.90;;;;;;5161431;28;20287;-52
2023/03/20 10:12:35;;;;;;;25.13;12.13;;;13.60;99.90;;;;;;5165314;28;20545;-51
2023/03/20 10:15:37;;;;;;;17.03;10.23;;;13.60;99.90;;;;;;5162579;28;20444;-52
2023/03/20 10:18:24;;;;;;;14.27;10.53;;;13.20;99.90;;;;;;5166270;28;20995;-51
2023/03/20 10:21:34;;;;;;;15.87;10.57;;;13.20;99.90;;;;;;5166439;28;20439;-49
2023/03/20 10:24:18;;;;;;;15.10;10.07;;;13.20;99.90;;;;;;5163898;28;20444;-50
2023/03/20 10:26:52;;;;;;;17.17;9.13;;;13.30;99.90;;;;;;5158509;28;20460;-50
2023/03/20 10:29:36;;;;;;;13.90;8.40;;;13.10;99.90;;;;;;5163509;28;20819;-50
2023/03/20 10:32:21;;;;;;;23.77;10.63;;;13.00;99.90;;;;;;5160341;28;20450;-48
2023/03/20 10:35:30;;;;;;;18.00;9.07;;;13.10;99.90;;;;;;5167852;28;20454;-50
2023/03/20 10:38:45;;;;;;;21.33;8.97;;;13.10;99.90;;;;;;5158329;28;20495;-50
2023/03/20 10:41:22;;;;;;;13.93;9.60;;;12.80;99.90;;;;;;5143780;28;20448;-51
2023/03/20 10:43:55;;;;;;;21.03;9.37;;;12.90;99.90;;;;;;5177157;28;20458;-49
2023/03/20 10:46:32;;;;;;;12.33;8.17;;;13.00;99.90;;;;;;5170720;28;20497;-52
2023/03/20 10:49:18;;;;;;;13.00;8.00;;;13.10;99.90;;;;;;5165174;28;20485;-53
2023/03/20 10:51:57;;;;;;;28.33;8.70;;;13.10;99.90;;;;;;5172541;28;20428;-52
2023/03/20 10:54:35;;;;;;;15.20;8.30;;;13.00;99.90;;;;;;5167692;28;20447;-51
2023/03/20 10:57:21;;;;;;;14.27;8.20;;;13.00;99.90;;;;;;5168520;28;20469;-50
2023/03/20 10:59:57;;;;;;;13.70;8.73;;;13.10;99.90;;;;;;5168702;28;20465;-49
2023/03/20 11:02:29;;;;;;;16.10;9.23;;;13.50;99.90;;;;;;5166297;28;20521;-51
2023/03/20 11:05:10;;;;;;;17.77;10.17;;;13.80;99.90;;;;;;5170991;28;20864;-48
2023/03/20 11:07:51;;;;;;;12.03;6.90;;;13.90;99.90;;;;;;5165145;28;21056;-53
2023/03/20 11:10:25;;;;;;;17.00;8.33;;;13.90;99.90;;;;;;5165336;28;20877;-50
2023/03/20 11:12:56;;;;;;;10.20;7.20;;;13.80;99.90;;;;;;5166913;28;20986;-50
2023/03/20 11:15:32;;;;;;;9.47;7.57;;;13.70;99.90;;;;;;5170284;28;20547;-52
2023/03/20 11:18:05;;;;;;;14.63;7.63;;;13.60;99.90;;;;;;5164780;28;20345;-50
2023/03/20 11:20:51;;;;;;;14.60;7.33;;;13.50;99.90;;;;;;5166893;28;20823;-51
2023/03/20 11:23:36;;;;;;;8.67;6.63;;;13.50;99.90;;;;;;5163900;28;20435;-52
2023/03/20 11:26:15;;;;;;;21.17;11.97;;;13.60;99.90;;;;;;5172221;28;20461;-49
2023/03/20 11:28:49;;;;;;;14.10;8.43;;;13.60;99.90;;;;;;5168437;28;20463;-51
2023/03/20 11:31:26;;;;;;;12.87;7.90;;;13.50;99.90;;;;;;5171405;28;20431;-48
2023/03/20 11:34:03;;;;;;;11.60;6.57;;;13.50;99.90;;;;;;5172270;28;20924;-48
2023/03/20 11:36:36;;;;;;;18.00;8.37;;;13.20;99.90;;;;;;5180880;28;20454;-48
2023/03/20 11:39:22;;;;;;;10.10;7.00;;;13.10;99.90;;;;;;5174257;28;20451;-48
2023/03/20 11:41:55;;;;;;;12.87;7.60;;;13.00;99.90;;;;;;5181291;28;20819;-48
2023/03/20 11:44:35;;;;;;;17.33;7.40;;;13.10;99.90;;;;;;5173290;28;20423;-47
2023/03/20 11:47:26;;;;;;;10.30;6.47;;;13.30;99.90;;;;;;5175184;28;20530;-50
2023/03/20 11:50:00;;;;;;;39.13;15.00;;;13.50;99.90;;;;;;5173240;28;20536;-48
2023/03/20 11:52:38;;;;;;;12.53;7.10;;;13.70;99.90;;;;;;5164786;28;20465;-47
2023/03/20 11:55:29;;;;;;;8.70;6.97;;;14.10;99.90;;;;;;5175482;28;20487;-49
2023/03/20 11:58:03;;;;;;;16.10;7.47;;;14.10;99.90;;;;;;5175020;28;21527;-52
2023/03/20 12:00:40;;;;;;;10.73;6.93;;;13.90;99.90;;;;;;5172356;28;20496;-49
2023/03/20 12:03:32;;;;;;;11.23;7.73;;;13.60;99.90;;;;;;5191032;28;20946;-49
2023/03/20 12:06:12;;;;;;;9.67;6.47;;;13.50;99.90;;;;;;5179382;28;20440;-47
2023/03/20 12:09:09;;;;;;;14.90;7.03;;;13.30;99.90;;;;;;5177959;28;20853;-50
2023/03/20 12:11:59;;;;;;;12.63;7.57;;;13.30;99.90;;;;;;5172867;28;20439;-46
2023/03/20 12:14:47;;;;;;;14.80;7.80;;;13.10;99.90;;;;;;5184322;28;20427;-48
2023/03/20 12:17:40;;;;;;;13.37;9.17;;;13.00;99.90;;;;;;5174515;28;20463;-47
2023/03/20 12:20:21;;;;;;;11.23;7.50;;;12.90;99.90;;;;;;5173952;28;20447;-48
2023/03/20 12:23:07;;;;;;;19.23;11.00;;;12.90;99.90;;;;;;5183206;28;20430;-50
2023/03/20 12:25:52;;;;;;;14.40;9.60;;;13.00;99.90;;;;;;5171863;28;20807;-48
2023/03/20 12:28:45;;;;;;;12.47;7.43;;;13.10;99.90;;;;;;5175336;28;20444;-46
2023/03/20 12:31:34;;;;;;;10.67;7.33;;;13.10;99.90;;;;;;5175461;28;20462;-49
2023/03/20 12:34:42;;;;;;;10.73;7.87;;;13.30;99.90;;;;;;5169989;28;20444;-48
2023/03/20 12:37:17;;;;;;;15.83;7.60;;;13.40;99.90;;;;;;5177096;28;20463;-50
2023/03/20 12:39:52;;;;;;;13.10;7.93;;;13.50;99.90;;;;;;5180510;28;20553;-47
2023/03/20 12:42:33;;;;;;;15.40;8.50;;;13.40;99.90;;;;;;5178472;28;20423;-49
2023/03/20 12:45:45;;;;;;;16.60;9.50;;;13.30;99.90;;;;;;5171260;28;20471;-48
2023/03/20 12:48:50;;;;;;;11.60;8.57;;;13.20;99.90;;;;;;5172233;28;20447;-48
2023/03/20 12:51:41;;;;;;;19.10;11.10;;;13.10;99.90;;;;;;5170445;28;20436;-48
2023/03/20 12:54:28;;;;;;;15.00;10.10;;;12.90;99.90;;;;;;5173384;28;20468;-51
2023/03/20 12:57:02;;;;;;;21.40;8.97;;;12.80;99.90;;;;;;5177031;28;20463;-49
2023/03/20 12:59:40;;;;;;;14.80;9.53;;;12.70;99.90;;;;;;5169412;28;20537;-50
2023/03/20 13:02:32;;;;;;;18.20;10.70;;;12.50;99.90;;;;;;5170805;28;20513;-49
2023/03/20 13:05:03;;;;;;;14.60;9.10;;;12.60;99.90;;;;;;5179548;28;20440;-49
2023/03/20 13:08:11;;;;;;;14.60;10.03;;;12.50;99.90;;;;;;5168121;28;20991;-51
2023/03/20 13:11:03;;;;;;;18.20;9.93;;;12.50;99.90;;;;;;5174042;28;20473;-53
2023/03/20 13:13:56;;;;;;;16.40;9.40;;;12.70;99.90;;;;;;5169469;28;20467;-52
2023/03/20 13:16:51;;;;;;;12.23;8.93;;;13.00;99.90;;;;;;5166435;28;20444;-50
2023/03/20 13:19:44;;;;;;;18.30;9.70;;;13.40;99.90;;;;;;5174309;28;20555;-47
2023/03/20 13:22:36;;;;;;;17.07;10.57;;;13.40;99.90;;;;;;5171676;28;20467;-51
2023/03/20 13:25:42;;;;;;;20.23;11.50;;;13.40;99.90;;;;;;5170611;28;20461;-53
2023/03/20 13:28:34;;;;;;;23.87;12.40;;;13.20;99.90;;;;;;5173263;28;20453;-51